Time;durP1;ratioP1;P1;durP2;ratioP2;P2;SDS_P1;SDS_P2;PMS_P1;PMS_P2;Temp;Humidity;BMP_temperature;BMP_pressure;BME280_temperature;BME280_humidity;BME280_pressure;Samples;Min_cycle;Max_cycle;Signal;HPM_P1;HPM_P2
2022/05/14 00:01:17;;;;;;;0.70;0.70;;;9.70;99.90;;;;;;5074492;28;20197;-73
2022/05/14 00:03:43;;;;;;;1.27;0.93;;;9.60;99.90;;;;;;5074391;28;20197;-73
2022/05/14 00:06:14;;;;;;;0.50;0.50;;;9.40;99.90;;;;;;5071332;28;20258;-73
2022/05/14 00:08:40;;;;;;;4.18;0.57;;;9.40;99.90;;;;;;5055530;28;20663;-73
2022/05/14 00:14:08;;;;;;;0.68;0.68;;;9.30;99.90;;;;;;5055045;28;20228;-73
2022/05/14 00:16:35;;;;;;;0.60;0.60;;;9.30;99.90;;;;;;5053228;28;20545;-73
2022/05/14 00:19:03;;;;;;;0.55;0.55;;;9.20;99.90;;;;;;5068315;28;20214;-73
2022/05/14 00:21:29;;;;;;;0.60;0.60;;;9.10;99.90;;;;;;5068446;28;20668;-73
2022/05/14 00:23:55;;;;;;;0.60;0.60;;;8.90;99.90;;;;;;5054896;28;20198;-74
2022/05/14 00:26:21;;;;;;;0.52;0.52;;;8.90;99.90;;;;;;5053149;28;20205;-73
2022/05/14 00:28:47;;;;;;;0.50;0.50;;;8.80;99.90;;;;;;5054651;28;20246;-73
2022/05/14 00:31:21;;;;;;;0.60;0.60;;;8.60;99.90;;;;;;5054889;28;20563;-73
2022/05/14 00:33:47;;;;;;;0.60;0.60;;;8.40;99.90;;;;;;5054635;28;20232;-73
2022/05/14 00:36:22;;;;;;;0.60;0.60;;;8.20;99.90;;;;;;5057949;28;20554;-74
2022/05/14 00:38:57;;;;;;;0.95;0.95;;;8.10;99.90;;;;;;5073211;28;20261;-73
2022/05/14 00:41:32;;;;;;;0.65;0.65;;;7.90;99.90;;;;;;5073144;28;20188;-74
2022/05/14 00:44:05;;;;;;;0.60;0.60;;;7.80;99.90;;;;;;5073402;28;20201;-74
2022/05/14 00:46:45;;;;;;;0.60;0.60;;;7.60;99.90;;;;;;5074328;28;20200;-73
2022/05/14 00:49:12;;;;;;;0.60;0.60;;;7.40;99.90;;;;;;5074471;28;20196;-73
2022/05/14 00:51:41;;;;;;;0.60;0.60;;;7.30;99.90;;;;;;5074202;28;20655;-73
2022/05/14 00:54:14;;;;;;;0.60;0.60;;;7.10;99.90;;;;;;5074262;28;20189;-73
2022/05/14 00:56:46;;;;;;;0.70;0.70;;;7.10;99.90;;;;;;5073773;28;20225;-73
2022/05/14 00:59:15;;;;;;;0.60;0.60;;;7.00;99.90;;;;;;5074259;28;20558;-73
2022/05/14 01:01:43;;;;;;;0.70;0.70;;;7.00;99.90;;;;;;5072668;28;20197;-74
2022/05/14 01:04:09;;;;;;;0.70;0.70;;;6.80;99.90;;;;;;5055372;28;20201;-74
2022/05/14 01:06:37;;;;;;;0.85;0.85;;;6.80;99.90;;;;;;5052502;28;20217;-74
2022/05/14 01:09:05;;;;;;;0.80;0.80;;;6.60;99.90;;;;;;5052773;28;20585;-74
2022/05/14 01:11:33;;;;;;;0.60;0.60;;;6.50;99.90;;;;;;5052507;28;20193;-73
2022/05/14 01:13:59;;;;;;;1.10;1.10;;;6.40;99.90;;;;;;5058097;28;20582;-74
2022/05/14 01:16:24;;;;;;;0.93;0.93;;;6.40;99.90;;;;;;5072323;28;20197;-74
2022/05/14 01:18:50;;;;;;;0.70;0.70;;;6.30;99.90;;;;;;5073768;28;20238;-74
2022/05/14 01:21:24;;;;;;;0.80;0.80;;;6.20;99.90;;;;;;5071990;28;20201;-74
2022/05/14 01:26:38;;;;;;;0.75;0.75;;;6.20;99.90;;;;;;5073383;28;20641;-74
2022/05/14 01:29:13;;;;;;;1.02;1.02;;;6.30;99.90;;;;;;5073880;28;20196;-74
2022/05/14 01:31:40;;;;;;;0.65;0.65;;;6.40;99.90;;;;;;5074152;28;20569;-74
2022/05/14 01:34:12;;;;;;;0.90;0.90;;;6.50;99.90;;;;;;5063864;28;20687;-73
2022/05/14 01:36:39;;;;;;;0.65;0.65;;;6.60;99.90;;;;;;5073785;28;20284;-74
2022/05/14 01:39:06;;;;;;;0.70;0.70;;;6.70;99.90;;;;;;5074070;28;20655;-73
2022/05/14 01:41:32;;;;;;;0.70;0.70;;;6.80;99.90;;;;;;5072332;28;20200;-74
2022/05/14 01:43:58;;;;;;;0.70;0.70;;;6.70;99.90;;;;;;5074000;28;20254;-74
2022/05/14 01:46:24;;;;;;;0.68;0.68;;;6.70;99.90;;;;;;5073142;28;20204;-74
2022/05/14 01:48:49;;;;;;;0.65;0.65;;;6.60;99.90;;;;;;5073620;28;20196;-74
2022/05/14 01:51:16;;;;;;;0.70;0.70;;;6.50;99.90;;;;;;5072147;28;20268;-74
2022/05/14 01:53:42;;;;;;;1.42;1.33;;;6.50;99.90;;;;;;5073148;28;20189;-73
2022/05/14 01:56:08;;;;;;;0.73;0.73;;;6.40;99.90;;;;;;5072598;28;20207;-74
2022/05/14 01:58:36;;;;;;;0.70;0.70;;;6.30;99.90;;;;;;5070656;28;20193;-73
2022/05/14 02:01:14;;;;;;;0.70;0.70;;;6.20;99.90;;;;;;5054604;28;20190;-73
2022/05/14 02:03:41;;;;;;;0.80;0.80;;;6.20;99.90;;;;;;5053415;28;20284;-72
2022/05/14 02:06:07;;;;;;;0.70;0.70;;;6.20;99.90;;;;;;5053177;28;20668;-72
2022/05/14 02:08:33;;;;;;;0.60;0.60;;;6.20;99.90;;;;;;5053256;28;20209;-72
2022/05/14 02:10:59;;;;;;;0.70;0.70;;;6.20;99.90;;;;;;5063508;28;20250;-72
2022/05/14 02:13:25;;;;;;;0.77;0.77;;;6.20;99.90;;;;;;5073039;28;20204;-72
2022/05/14 02:15:52;;;;;;;0.80;0.80;;;6.20;99.90;;;;;;5073266;28;20193;-72
2022/05/14 02:18:19;;;;;;;0.70;0.70;;;6.30;99.90;;;;;;5063395;28;20201;-72
2022/05/14 02:20:45;;;;;;;0.68;0.68;;;6.30;99.90;;;;;;5085381;28;20354;-72
2022/05/14 02:23:12;;;;;;;0.63;0.63;;;6.40;99.90;;;;;;5085160;28;20271;-73
2022/05/14 02:25:38;;;;;;;10.23;1.23;;;6.40;99.90;;;;;;5052930;28;20209;-72
2022/05/14 02:28:04;;;;;;;0.70;0.70;;;6.50;99.90;;;;;;5053696;28;20640;-72
2022/05/14 02:30:30;;;;;;;0.70;0.70;;;6.60;99.90;;;;;;5052920;28;20272;-71
2022/05/14 02:32:56;;;;;;;0.70;0.70;;;6.60;99.90;;;;;;5052614;28;20308;-72
2022/05/14 02:35:22;;;;;;;0.80;0.80;;;6.70;99.90;;;;;;5052892;28;20197;-72
2022/05/14 02:37:47;;;;;;;0.70;0.70;;;6.70;99.90;;;;;;5051713;28;20239;-73
2022/05/14 02:40:13;;;;;;;0.70;0.70;;;6.90;99.90;;;;;;5051694;28;20310;-73
2022/05/14 02:42:40;;;;;;;0.73;0.73;;;6.90;99.90;;;;;;5052236;28;20573;-73
2022/05/14 02:45:07;;;;;;;0.70;0.70;;;7.00;99.90;;;;;;5053019;28;20233;-73
2022/05/14 02:47:32;;;;;;;0.77;0.77;;;7.00;99.90;;;;;;5055079;28;20204;-72
2022/05/14 02:49:58;;;;;;;0.60;0.60;;;7.10;99.90;;;;;;5072793;28;20195;-72
2022/05/14 02:52:25;;;;;;;0.63;0.63;;;7.10;99.90;;;;;;5072602;28;20219;-72
2022/05/14 02:54:51;;;;;;;0.63;0.63;;;7.10;99.90;;;;;;5069629;28;20273;-73
2022/05/14 02:57:17;;;;;;;0.77;0.77;;;7.10;99.90;;;;;;5052863;28;20280;-73
2022/05/14 02:59:43;;;;;;;0.70;0.70;;;7.10;99.90;;;;;;5052799;28;20198;-73
2022/05/14 03:02:09;;;;;;;0.77;0.77;;;7.20;99.90;;;;;;5060737;28;20205;-73
2022/05/14 03:04:37;;;;;;;0.90;0.90;;;7.20;99.90;;;;;;5072552;28;20721;-72
2022/05/14 03:07:06;;;;;;;0.70;0.70;;;7.20;99.90;;;;;;5072702;28;20342;-72
2022/05/14 03:09:33;;;;;;;0.70;0.70;;;7.20;99.90;;;;;;5072739;28;20212;-73
2022/05/14 03:11:59;;;;;;;0.70;0.70;;;7.20;99.90;;;;;;5071606;28;20708;-73
2022/05/14 03:14:25;;;;;;;0.70;0.70;;;7.10;99.90;;;;;;5072864;28;20274;-72
2022/05/14 03:16:51;;;;;;;0.70;0.70;;;7.10;99.90;;;;;;5072819;28;20204;-73
2022/05/14 03:19:17;;;;;;;0.60;0.60;;;7.10;99.90;;;;;;5071454;28;20200;-73
2022/05/14 03:21:43;;;;;;;0.70;0.70;;;7.00;99.90;;;;;;5062819;28;20198;-72
2022/05/14 03:24:10;;;;;;;0.60;0.60;;;6.90;99.90;;;;;;5084641;28;20201;-72
2022/05/14 03:26:37;;;;;;;1.25;1.15;;;6.80;99.90;;;;;;5067956;28;20208;-72
2022/05/14 03:29:03;;;;;;;0.60;0.60;;;6.80;99.90;;;;;;5072599;28;20193;-73
2022/05/14 03:31:31;;;;;;;0.75;0.75;;;6.70;99.90;;;;;;5072412;28;20255;-72
2022/05/14 03:33:57;;;;;;;0.60;0.60;;;6.70;99.90;;;;;;5072533;28;20224;-73
2022/05/14 03:36:23;;;;;;;0.70;0.70;;;6.60;99.90;;;;;;5071372;28;20254;-72
2022/05/14 03:38:53;;;;;;;0.60;0.60;;;6.60;99.90;;;;;;5072457;28;20596;-74
2022/05/14 03:41:18;;;;;;;0.98;0.98;;;6.60;99.90;;;;;;5072355;28;20199;-73
2022/05/14 03:43:44;;;;;;;0.80;0.80;;;6.60;99.90;;;;;;5072579;28;20200;-74
2022/05/14 03:46:21;;;;;;;0.80;0.80;;;6.60;99.90;;;;;;5074184;28;20271;-73
2022/05/14 03:48:50;;;;;;;0.70;0.70;;;6.70;99.90;;;;;;5075993;28;20199;-73
2022/05/14 03:51:21;;;;;;;0.60;0.60;;;6.80;99.90;;;;;;5072120;28;20196;-73
2022/05/14 03:53:47;;;;;;;0.60;0.60;;;6.90;99.90;;;;;;5054738;28;20239;-73
2022/05/14 03:56:13;;;;;;;0.60;0.60;;;7.00;99.90;;;;;;5056007;28;20193;-73
2022/05/14 03:58:39;;;;;;;0.75;0.75;;;7.00;99.90;;;;;;5055751;28;20733;-73
2022/05/14 04:01:06;;;;;;;0.75;0.75;;;7.00;99.90;;;;;;5054454;28;20205;-73
2022/05/14 04:03:34;;;;;;;3.72;2.10;;;7.00;99.90;;;;;;5064970;28;20208;-73
2022/05/14 04:06:01;;;;;;;0.68;0.68;;;7.00;99.90;;;;;;5074524;28;20209;-73
2022/05/14 04:08:27;;;;;;;0.77;0.77;;;7.00;99.90;;;;;;5075596;28;20223;-73
2022/05/14 04:10:55;;;;;;;0.85;0.85;;;6.90;99.90;;;;;;5074978;28;20236;-73
2022/05/14 04:13:21;;;;;;;0.65;0.65;;;6.80;99.90;;;;;;5075328;28;20193;-73
2022/05/14 04:15:47;;;;;;;0.60;0.60;;;6.80;99.90;;;;;;5074224;28;20208;-73
2022/05/14 04:18:13;;;;;;;0.80;0.80;;;6.80;99.90;;;;;;5074178;28;20197;-73
2022/05/14 04:20:40;;;;;;;0.60;0.60;;;6.80;99.90;;;;;;5073763;28;20197;-73
2022/05/14 04:23:07;;;;;;;0.60;0.60;;;6.80;99.90;;;;;;5055699;28;20220;-73
2022/05/14 04:25:33;;;;;;;0.60;0.60;;;7.00;99.90;;;;;;5053878;28;20198;-73
2022/05/14 04:27:59;;;;;;;0.90;0.90;;;7.20;99.90;;;;;;5055217;28;20212;-73
2022/05/14 04:30:25;;;;;;;0.60;0.60;;;7.40;99.90;;;;;;5053682;28;20197;-73
2022/05/14 04:32:51;;;;;;;0.70;0.70;;;7.60;99.90;;;;;;5055166;28;20695;-73
2022/05/14 04:35:18;;;;;;;1.88;1.75;;;7.80;99.90;;;;;;5055190;28;20211;-73
2022/05/14 04:37:43;;;;;;;0.70;0.70;;;7.90;99.90;;;;;;5055156;28;20239;-73
2022/05/14 04:40:11;;;;;;;0.90;0.90;;;8.20;99.90;;;;;;5053651;28;20202;-74
2022/05/14 04:42:38;;;;;;;0.50;0.50;;;8.30;99.90;;;;;;5087228;28;20259;-73
2022/05/14 04:45:05;;;;;;;0.60;0.60;;;8.50;99.90;;;;;;5055047;28;20221;-73
2022/05/14 04:47:31;;;;;;;0.80;0.80;;;8.70;99.90;;;;;;5058354;28;20243;-73
2022/05/14 04:49:56;;;;;;;0.60;0.60;;;8.90;99.90;;;;;;5074643;28;20204;-73
2022/05/14 04:52:22;;;;;;;0.70;0.70;;;9.00;99.90;;;;;;5072970;28;20215;-73
2022/05/14 04:54:48;;;;;;;3.83;1.02;;;9.30;99.90;;;;;;5073561;28;20192;-73
2022/05/14 04:57:13;;;;;;;0.60;0.60;;;9.40;99.90;;;;;;5074749;28;20196;-73
2022/05/14 04:59:39;;;;;;;0.70;0.70;;;9.60;99.90;;;;;;5074463;28;20196;-73
2022/05/14 05:04:49;;;;;;;0.70;0.70;;;9.90;99.90;;;;;;5074716;28;20690;-73
2022/05/14 05:07:15;;;;;;;2.90;0.80;;;10.10;99.90;;;;;;5073189;28;20205;-73
2022/05/14 05:09:41;;;;;;;0.50;0.50;;;10.20;99.90;;;;;;5074168;28;20267;-73
2022/05/14 05:12:07;;;;;;;0.60;0.60;;;10.30;99.90;;;;;;5074520;28;20691;-73
2022/05/14 05:14:37;;;;;;;0.60;0.60;;;10.40;99.90;;;;;;5072908;28;20605;-73
2022/05/14 05:17:03;;;;;;;0.50;0.50;;;10.50;99.90;;;;;;5074343;28;20196;-73
2022/05/14 05:19:28;;;;;;;0.80;0.80;;;10.70;99.90;;;;;;5054173;28;20593;-73
2022/05/14 05:21:54;;;;;;;0.65;0.65;;;10.80;99.90;;;;;;5063294;28;20204;-73
2022/05/14 05:24:20;;;;;;;0.90;0.90;;;11.00;99.90;;;;;;5074141;28;20192;-73
2022/05/14 05:26:45;;;;;;;0.60;0.60;;;11.00;99.90;;;;;;5072857;28;20218;-73
2022/05/14 05:29:11;;;;;;;0.80;0.80;;;11.00;99.90;;;;;;5074025;28;20249;-73
2022/05/14 05:31:39;;;;;;;1.75;1.30;;;11.00;99.90;;;;;;5073793;28;20319;-72
2022/05/14 05:34:05;;;;;;;0.50;0.50;;;11.20;99.90;;;;;;5072350;28;20270;-72
2022/05/14 05:36:31;;;;;;;6.80;2.25;;;11.20;99.90;;;;;;5073122;28;20623;-72
2022/05/14 05:38:58;;;;;;;1.05;0.90;;;11.20;99.90;;;;;;5073923;28;20188;-73
2022/05/14 05:41:24;;;;;;;0.60;0.60;;;11.00;99.90;;;;;;5073721;28;20247;-72
2022/05/14 05:43:50;;;;;;;0.60;0.60;;;11.00;99.90;;;;;;5068127;28;20554;-72
2022/05/14 05:46:15;;;;;;;6.32;1.13;;;11.00;99.90;;;;;;5052474;28;20266;-72
2022/05/14 05:48:42;;;;;;;0.70;0.70;;;11.10;99.90;;;;;;5052233;28;20194;-72
2022/05/14 05:51:08;;;;;;;1.05;1.00;;;11.10;99.90;;;;;;5053676;28;20663;-72
2022/05/14 05:59:04;;;;;;;1.50;1.30;;;11.00;99.90;;;;;;5073608;28;20208;-72
2022/05/14 06:01:30;;;;;;;1.67;1.58;;;11.40;99.90;;;;;;5073203;28;20287;-72
2022/05/14 06:03:56;;;;;;;1.55;1.45;;;11.50;99.90;;;;;;5072124;28;20196;-72
2022/05/14 06:06:23;;;;;;;0.60;0.60;;;11.80;99.90;;;;;;5073157;28;20206;-72
2022/05/14 06:08:48;;;;;;;0.50;0.50;;;11.90;99.90;;;;;;5072956;28;20233;-72
2022/05/14 06:11:15;;;;;;;1.35;1.30;;;12.10;99.90;;;;;;5072175;28;20288;-72
2022/05/14 06:13:42;;;;;;;0.50;0.50;;;12.30;99.90;;;;;;5073004;28;20205;-72
2022/05/14 06:16:12;;;;;;;0.50;0.50;;;12.30;99.90;;;;;;5073202;28;20303;-74
2022/05/14 06:18:39;;;;;;;0.60;0.60;;;12.50;99.90;;;;;;5072964;28;20283;-73
2022/05/14 06:21:05;;;;;;;0.75;0.70;;;12.50;99.90;;;;;;5069317;28;20204;-73
2022/05/14 06:23:32;;;;;;;0.40;0.40;;;12.70;99.90;;;;;;5051612;28;20656;-74
2022/05/14 06:25:59;;;;;;;0.77;0.77;;;12.70;99.90;;;;;;5051542;28;20311;-74
2022/05/14 06:28:24;;;;;;;0.47;0.47;;;12.50;99.90;;;;;;5051459;28;20216;-74
2022/05/14 06:30:50;;;;;;;1.65;1.23;;;12.70;99.90;;;;;;5053064;28;20194;-75
2022/05/14 06:33:17;;;;;;;0.55;0.55;;;13.00;99.90;;;;;;5061525;28;20315;-74
2022/05/14 06:35:44;;;;;;;0.52;0.52;;;13.00;99.90;;;;;;5073220;28;20273;-74
2022/05/14 06:38:10;;;;;;;0.50;0.50;;;13.00;99.90;;;;;;5071686;28;20193;-74
2022/05/14 06:40:37;;;;;;;1.75;1.20;;;13.10;99.90;;;;;;5072605;28;20239;-74
2022/05/14 06:43:04;;;;;;;0.50;0.50;;;13.20;99.90;;;;;;5073131;28;20595;-75
2022/05/14 06:45:30;;;;;;;0.57;0.57;;;13.50;99.90;;;;;;5071581;28;20298;-75
2022/05/14 06:47:56;;;;;;;0.65;0.65;;;13.90;99.90;;;;;;5071810;28;20196;-74
2022/05/14 06:50:22;;;;;;;0.50;0.50;;;13.90;99.90;;;;;;5072747;28;20196;-73
2022/05/14 06:52:51;;;;;;;0.50;0.50;;;14.00;99.90;;;;;;5071504;28;20548;-74
2022/05/14 06:55:20;;;;;;;0.68;0.50;;;14.10;99.90;;;;;;5073091;28;20193;-72
2022/05/14 06:57:48;;;;;;;0.50;0.50;;;13.70;99.90;;;;;;5073039;28;20275;-73
2022/05/14 07:00:15;;;;;;;0.50;0.50;;;13.70;99.90;;;;;;5072899;28;20563;-73
2022/05/14 07:02:42;;;;;;;3.03;0.93;;;13.70;99.90;;;;;;5071330;28;20235;-74
2022/05/14 07:07:52;;;;;;;0.40;0.40;;;14.00;99.90;;;;;;5072771;28;20212;-72
2022/05/14 07:10:18;;;;;;;0.40;0.40;;;14.30;99.90;;;;;;5072543;28;20193;-73
2022/05/14 07:12:44;;;;;;;0.93;0.93;;;14.50;99.90;;;;;;5072671;28;20207;-73
2022/05/14 07:15:12;;;;;;;0.75;0.75;;;14.70;99.90;;;;;;5072570;28;20224;-73
2022/05/14 07:17:38;;;;;;;0.50;0.50;;;14.90;99.90;;;;;;5071512;28;20578;-72
2022/05/14 07:20:05;;;;;;;0.30;0.30;;;15.00;99.90;;;;;;5071625;28;20678;-73
2022/05/14 07:22:31;;;;;;;0.40;0.40;;;15.30;99.90;;;;;;5074855;28;20192;-74
2022/05/14 07:24:57;;;;;;;0.40;0.40;;;15.40;99.90;;;;;;5076573;28;20196;-74
2022/05/14 07:27:22;;;;;;;0.30;0.30;;;15.10;99.90;;;;;;5076185;28;20208;-73
2022/05/14 07:29:48;;;;;;;0.40;0.40;;;15.30;99.90;;;;;;5076142;28;20205;-74
2022/05/14 07:32:17;;;;;;;0.30;0.30;;;15.60;99.90;;;;;;5076376;28;20246;-74
2022/05/14 07:34:43;;;;;;;0.40;0.40;;;15.80;99.90;;;;;;5076523;28;20256;-75
2022/05/14 07:37:26;;;;;;;0.30;0.30;;;15.90;99.90;;;;;;5065075;28;20281;-73
2022/05/14 07:39:57;;;;;;;0.50;0.50;;;16.10;99.90;;;;;;5054981;28;20255;-73
2022/05/14 07:42:52;;;;;;;0.30;0.30;;;16.00;99.90;;;;;;5056100;28;20283;-74
2022/05/14 07:45:41;;;;;;;0.40;0.40;;;16.10;99.90;;;;;;5056263;28;20202;-77
2022/05/14 07:48:12;;;;;;;0.30;0.30;;;16.30;99.90;;;;;;5062032;28;20197;-74
2022/05/14 07:50:39;;;;;;;0.50;0.50;;;16.30;99.90;;;;;;5075929;28;20683;-74
2022/05/14 07:53:06;;;;;;;0.90;0.57;;;16.20;99.90;;;;;;5073971;28;20594;-73
2022/05/14 07:55:33;;;;;;;0.30;0.30;;;16.40;99.90;;;;;;5075681;28;20200;-74
2022/05/14 07:57:59;;;;;;;0.63;0.63;;;16.30;99.90;;;;;;5075661;28;20242;-75
2022/05/14 08:00:25;;;;;;;0.40;0.40;;;16.30;99.90;;;;;;5075589;28;20192;-76
2022/05/14 08:02:51;;;;;;;0.32;0.32;;;16.40;99.90;;;;;;5075750;28;20189;-75
2022/05/14 08:05:20;;;;;;;0.65;0.55;;;16.50;99.90;;;;;;5074453;28;20193;-74
2022/05/14 08:07:47;;;;;;;1.42;0.95;;;16.40;99.90;;;;;;5075638;28;20258;-74
2022/05/14 08:10:13;;;;;;;0.30;0.30;;;16.50;99.90;;;;;;5075830;28;20193;-74
2022/05/14 08:12:42;;;;;;;0.30;0.30;;;16.70;99.90;;;;;;5075515;28;20242;-74
2022/05/14 08:15:10;;;;;;;0.38;0.38;;;16.80;99.90;;;;;;5075927;28;20193;-75
2022/05/14 08:17:35;;;;;;;0.30;0.30;;;17.10;99.90;;;;;;5073576;28;20220;-76
2022/05/14 08:20:02;;;;;;;1.17;0.45;;;17.30;99.90;;;;;;5074115;28;20663;-76
2022/05/14 08:25:13;;;;;;;0.30;0.30;;;17.50;99.90;;;;;;5060539;28;20257;-73
2022/05/14 08:27:44;;;;;;;0.25;0.25;;;17.40;99.90;;;;;;5073922;28;20216;-74
2022/05/14 08:30:12;;;;;;;0.82;0.60;;;17.10;99.90;;;;;;5075367;28;20659;-73
2022/05/14 08:32:37;;;;;;;1.23;1.02;;;16.60;99.90;;;;;;5069637;28;20200;-74
2022/05/14 08:35:04;;;;;;;0.30;0.30;;;16.70;99.90;;;;;;5055293;28;20193;-77
2022/05/14 08:37:30;;;;;;;0.85;0.50;;;17.10;99.90;;;;;;5053534;28;20675;-74
2022/05/14 08:39:55;;;;;;;0.30;0.30;;;17.30;99.90;;;;;;5055167;28;20197;-73
2022/05/14 08:42:21;;;;;;;0.20;0.20;;;17.50;99.90;;;;;;5053671;28;20662;-76
2022/05/14 08:44:48;;;;;;;0.40;0.40;;;17.10;99.90;;;;;;5065812;28;20274;-77
2022/05/14 08:47:41;;;;;;;0.40;0.40;;;16.80;99.90;;;;;;5073969;28;20205;-75
2022/05/14 08:50:08;;;;;;;0.30;0.30;;;16.90;99.90;;;;;;5073790;28;20232;-75
2022/05/14 08:52:39;;;;;;;0.30;0.30;;;17.60;99.90;;;;;;5073398;28;20195;-73
2022/05/14 08:55:14;;;;;;;0.30;0.30;;;17.80;99.90;;;;;;5073562;28;20243;-73
2022/05/14 08:57:58;;;;;;;0.20;0.20;;;17.30;97.50;;;;;;5074590;28;20197;-75
2022/05/14 09:00:24;;;;;;;0.30;0.30;;;16.50;98.90;;;;;;5074401;28;20584;-76
2022/05/14 09:02:52;;;;;;;0.40;0.40;;;16.60;98.00;;;;;;5073122;28;20193;-75
2022/05/14 09:05:24;;;;;;;0.30;0.30;;;17.20;99.70;;;;;;5073481;28;20250;-77
2022/05/14 09:07:50;;;;;;;0.20;0.20;;;18.00;99.90;;;;;;5074371;28;20208;-75
2022/05/14 09:10:35;;;;;;;0.40;0.40;;;18.80;96.90;;;;;;5074553;28;20193;-76
2022/05/14 09:13:14;;;;;;;0.22;0.22;;;19.20;94.40;;;;;;5072940;28;20681;-76
2022/05/14 09:15:51;;;;;;;0.30;0.30;;;19.20;94.80;;;;;;5074261;28;20196;-79
2022/05/14 09:18:29;;;;;;;0.20;0.20;;;19.30;95.70;;;;;;5072421;28;20690;-76
2022/05/14 09:21:00;;;;;;;0.20;0.20;;;19.90;94.30;;;;;;5072133;28;20197;-75
2022/05/14 09:23:33;;;;;;;0.20;0.20;;;20.60;90.90;;;;;;5074013;28;20251;-78
2022/05/14 09:26:30;;;;;;;0.30;0.30;;;20.60;90.20;;;;;;5072831;28;20371;-81
2022/05/14 09:29:12;;;;;;;0.20;0.20;;;20.60;88.60;;;;;;5067551;28;20211;-79
2022/05/14 09:31:51;;;;;;;0.25;0.25;;;20.30;89.40;;;;;;5053772;28;20667;-79
2022/05/14 09:34:18;;;;;;;0.20;0.20;;;20.80;84.60;;;;;;5055175;28;20420;-78
2022/05/14 09:36:45;;;;;;;0.20;0.20;;;21.30;91.40;;;;;;5054458;28;20197;-77
2022/05/14 09:39:16;;;;;;;0.20;0.20;;;22.30;88.10;;;;;;5054068;28;20251;-78
2022/05/14 09:41:51;;;;;;;0.20;0.20;;;22.20;76.30;;;;;;5068981;28;20197;-77
2022/05/14 09:44:29;;;;;;;0.30;0.30;;;20.50;79.30;;;;;;5073153;28;20255;-77
2022/05/14 09:47:08;;;;;;;0.10;0.10;;;20.30;79.70;;;;;;5072915;28;20621;-77
2022/05/14 09:49:39;;;;;;;0.20;0.20;;;20.60;81.50;;;;;;5074435;28;20256;-77
2022/05/14 09:52:07;;;;;;;0.20;0.20;;;21.10;83.20;;;;;;5073820;28;20184;-77
2022/05/14 09:54:45;;;;;;;0.20;0.20;;;21.00;83.10;;;;;;5072650;28;20318;-77
2022/05/14 09:57:20;;;;;;;0.20;0.20;;;20.70;84.30;;;;;;5073452;28;20192;-77
2022/05/14 10:00:13;;;;;;;0.25;0.25;;;21.40;82.90;;;;;;5073951;28;20197;-77
2022/05/14 10:02:48;;;;;;;0.30;0.30;;;21.00;81.80;;;;;;5073666;28;21301;-76
2022/05/14 10:05:41;;;;;;;0.28;0.28;;;20.40;81.80;;;;;;5073818;28;20227;-77
2022/05/14 10:08:20;;;;;;;0.30;0.30;;;19.60;83.30;;;;;;5073962;28;20238;-77
2022/05/14 10:10:49;;;;;;;0.20;0.20;;;18.70;85.60;;;;;;5074102;28;20729;-76
2022/05/14 10:13:39;;;;;;;0.22;0.22;;;18.20;84.00;;;;;;5073675;28;20192;-76
2022/05/14 10:16:22;;;;;;;0.30;0.30;;;18.00;89.00;;;;;;5073386;28;20193;-76
2022/05/14 10:19:03;;;;;;;0.30;0.30;;;18.10;85.60;;;;;;5073383;28;20208;-76
2022/05/14 10:21:56;;;;;;;0.30;0.30;;;17.40;90.30;;;;;;5066575;28;20194;-76
2022/05/14 10:27:44;;;;;;;0.30;0.30;;;17.40;90.50;;;;;;5052655;28;20276;-76
2022/05/14 10:30:21;;;;;;;0.20;0.20;;;18.30;90.60;;;;;;5069247;28;20733;-77
2022/05/14 10:32:56;;;;;;;13.25;0.40;;;18.70;85.60;;;;;;5068568;28;20239;-75
2022/05/14 10:35:30;;;;;;;0.25;0.25;;;19.40;88.30;;;;;;5053257;28;20188;-76
2022/05/14 10:38:13;;;;;;;0.20;0.20;;;19.60;85.80;;;;;;5069372;28;20196;-75
2022/05/14 10:40:46;;;;;;;0.20;0.20;;;19.30;85.60;;;;;;5073596;28;20580;-75
2022/05/14 10:43:34;;;;;;;0.30;0.30;;;19.00;84.50;;;;;;5073567;28;20188;-76
2022/05/14 10:46:06;;;;;;;0.20;0.20;;;18.80;87.20;;;;;;5085561;28;20244;-77
2022/05/14 10:48:47;;;;;;;0.13;0.13;;;18.80;86.80;;;;;;5053219;28;20738;-76
2022/05/14 10:51:20;;;;;;;0.20;0.20;;;19.10;84.40;;;;;;5085746;28;20544;-76
2022/05/14 10:53:46;;;;;;;0.30;0.30;;;18.60;83.80;;;;;;5053348;28;20656;-76
2022/05/14 10:56:34;;;;;;;0.20;0.20;;;18.50;85.60;;;;;;5070892;28;20201;-76
2022/05/14 10:59:13;;;;;;;0.20;0.20;;;19.40;86.60;;;;;;5076927;28;20204;-76
2022/05/14 11:01:46;;;;;;;0.20;0.20;;;19.80;81.40;;;;;;5076417;28;20200;-76
2022/05/14 11:04:30;;;;;;;0.20;0.20;;;20.00;81.10;;;;;;5076374;28;20201;-76
2022/05/14 11:07:04;;;;;;;0.20;0.20;;;19.90;80.20;;;;;;5077157;28;20200;-76
2022/05/14 11:09:36;;;;;;;0.20;0.20;;;19.20;84.30;;;;;;5077111;28;20191;-76
2022/05/14 11:12:08;;;;;;;0.20;0.20;;;18.80;84.60;;;;;;5076578;28;20239;-76
2022/05/14 11:14:46;;;;;;;0.20;0.20;;;18.10;84.00;;;;;;5077163;28;20671;-76
2022/05/14 11:17:24;;;;;;;0.20;0.20;;;18.00;87.00;;;;;;5076913;28;20248;-79
2022/05/14 11:20:02;;;;;;;0.20;0.20;;;19.20;86.20;;;;;;5075717;28;20193;-77
2022/05/14 11:22:50;;;;;;;0.20;0.20;;;20.70;82.90;;;;;;5061502;28;20634;-80
2022/05/14 11:25:27;;;;;;;0.20;0.20;;;21.10;78.20;;;;;;5055591;28;20633;-80
2022/05/14 11:27:58;;;;;;;0.20;0.20;;;20.20;77.90;;;;;;5055356;28;20209;-79
2022/05/14 11:30:51;;;;;;;0.20;0.20;;;19.30;80.10;;;;;;5055281;28;20198;-80
2022/05/14 11:33:22;;;;;;;0.28;0.28;;;18.50;82.70;;;;;;5064774;28;20695;-77
2022/05/14 11:36:00;;;;;;;0.20;0.20;;;17.70;84.80;;;;;;5076572;28;20188;-78
2022/05/14 11:38:28;;;;;;;0.17;0.17;;;17.10;88.40;;;;;;5075128;28;20652;-78
2022/05/14 11:41:00;;;;;;;0.10;0.10;;;16.80;89.70;;;;;;5076384;28;20189;-79
2022/05/14 11:43:28;;;;;;;0.10;0.10;;;16.60;91.20;;;;;;5075025;28;20718;-78
2022/05/14 11:46:30;;;;;;;0.08;0.08;;;16.50;90.20;;;;;;5076448;28;20703;-79
2022/05/14 11:48:58;;;;;;;0.10;0.10;;;16.50;91.10;;;;;;5076406;28;20674;-80
2022/05/14 11:51:54;;;;;;;0.10;0.10;;;16.70;90.70;;;;;;5070153;28;20199;-79
2022/05/14 11:54:50;;;;;;;0.10;0.10;;;16.50;87.60;;;;;;5071434;28;20189;-76
2022/05/14 11:57:25;;;;;;;0.10;0.10;;;16.60;88.60;;;;;;5056633;28;20676;-79
2022/05/14 11:59:55;;;;;;;0.10;0.10;;;17.40;89.20;;;;;;5072186;28;20286;-79
2022/05/14 12:02:44;;;;;;;0.10;0.10;;;17.90;86.50;;;;;;5071330;28;20200;-77
2022/05/14 12:05:43;;;;;;;0.10;0.10;;;18.60;83.00;;;;;;5056227;28;20664;-79
2022/05/14 12:08:43;;;;;;;0.10;0.10;;;18.80;83.50;;;;;;5070991;28;20229;-77
2022/05/14 12:11:17;;;;;;;0.10;0.10;;;19.20;83.20;;;;;;5074278;28;20207;-73
2022/05/14 12:14:41;;;;;;;0.10;0.10;;;18.70;82.30;;;;;;5075534;28;20219;-76
2022/05/14 12:17:14;;;;;;;0.10;0.10;;;18.60;88.00;;;;;;5057783;28;20248;-72
2022/05/14 12:19:41;;;;;;;0.10;0.10;;;19.00;83.60;;;;;;5075072;28;20197;-75
2022/05/14 12:22:18;;;;;;;0.60;0.25;;;19.20;85.50;;;;;;5062440;28;20296;-76
2022/05/14 12:25:08;;;;;;;0.10;0.10;;;18.70;85.40;;;;;;5055008;28;20223;-76
2022/05/14 12:27:44;;;;;;;0.10;0.10;;;17.90;88.60;;;;;;5055023;28;20210;-75
2022/05/14 12:30:13;;;;;;;0.10;0.10;;;17.60;90.80;;;;;;5068663;28;20657;-75
2022/05/14 12:35:31;;;;;;;0.00;0.00;;;17.20;90.40;;;;;;5075362;28;20215;-78
2022/05/14 12:37:59;;;;;;;0.10;0.10;;;17.00;90.90;;;;;;5075665;28;20265;-77
2022/05/14 12:40:30;;;;;;;0.10;0.10;;;16.70;91.50;;;;;;5075287;28;20201;-76
2022/05/14 12:42:58;;;;;;;0.10;0.10;;;16.30;92.60;;;;;;5073937;28;20635;-76
2022/05/14 12:45:42;;;;;;;0.10;0.10;;;16.30;92.50;;;;;;5075166;28;20189;-79
2022/05/14 12:48:10;;;;;;;0.10;0.10;;;16.30;92.30;;;;;;5066346;28;20569;-76
2022/05/14 12:50:39;;;;;;;0.10;0.10;;;16.30;92.80;;;;;;5053749;28;20710;-77
2022/05/14 12:53:12;;;;;;;0.10;0.10;;;16.60;92.00;;;;;;5053755;28;20202;-74
2022/05/14 12:55:45;;;;;;;0.10;0.10;;;16.60;92.70;;;;;;5055181;28;20186;-75
2022/05/14 12:58:13;;;;;;;0.10;0.10;;;16.60;92.00;;;;;;5053696;28;20194;-76
2022/05/14 13:00:39;;;;;;;0.10;0.10;;;16.90;92.60;;;;;;5053268;28;20229;-77
2022/05/14 13:03:18;;;;;;;0.00;0.00;;;17.20;92.60;;;;;;5053697;28;20565;-76
2022/05/14 13:06:00;;;;;;;0.10;0.10;;;17.30;90.90;;;;;;5053377;28;20201;-77
2022/05/14 13:08:27;;;;;;;0.00;0.00;;;17.50;90.00;;;;;;5054910;28;20280;-76
2022/05/14 13:11:00;;;;;;;0.10;0.10;;;17.70;91.40;;;;;;5053778;28;20280;-74
2022/05/14 13:13:36;;;;;;;0.05;0.05;;;17.60;91.40;;;;;;5055073;28;20782;-76
2022/05/14 13:16:15;;;;;;;0.10;0.10;;;18.00;90.70;;;;;;5074465;28;20216;-75
2022/05/14 13:18:49;;;;;;;0.10;0.10;;;17.80;88.50;;;;;;5074284;28;20570;-75
2022/05/14 13:21:27;;;;;;;0.10;0.10;;;17.80;88.00;;;;;;5070171;28;20184;-76
2022/05/14 13:24:00;;;;;;;0.00;0.00;;;17.80;90.00;;;;;;5054515;28;20589;-75
2022/05/14 13:26:34;;;;;;;0.00;0.00;;;17.90;87.60;;;;;;5067694;28;20205;-78
2022/05/14 13:29:17;;;;;;;0.10;0.10;;;17.90;91.30;;;;;;5072926;28;20200;-76
2022/05/14 13:31:45;;;;;;;0.20;0.20;;;18.00;89.00;;;;;;5072937;28;20196;-78
2022/05/14 13:37:12;;;;;;;0.10;0.10;;;18.50;87.40;;;;;;5074790;28;20200;-82